Time;durP1;ratioP1;P1;durP2;ratioP2;P2;SDS_P1;SDS_P2;PMS_P1;PMS_P2;Temp;Humidity;BMP_temperature;BMP_pressure;BME280_temperature;BME280_humidity;BME280_pressure;Samples;Min_cycle;Max_cycle;Signal;HPM_P1;HPM_P2
2021/10/13 00:02:05;;;;;;;2.97;1.67;;;6.70;99.90;;;;;;5009746;28;20073;-80
2021/10/13 00:04:31;;;;;;;5.05;2.17;;;6.70;99.90;;;;;;5007133;28;20065;-79
2021/10/13 00:06:57;;;;;;;3.33;2.05;;;6.70;99.90;;;;;;5015696;28;20033;-79
2021/10/13 00:09:23;;;;;;;4.10;1.88;;;6.70;99.90;;;;;;5001798;28;20034;-79
2021/10/13 00:11:48;;;;;;;4.53;2.08;;;6.70;99.90;;;;;;4977879;28;20033;-79
2021/10/13 00:14:14;;;;;;;2.45;1.80;;;6.70;99.90;;;;;;5002823;28;20026;-79
2021/10/13 00:16:40;;;;;;;2.95;1.95;;;6.70;99.90;;;;;;5000211;28;20026;-79
2021/10/13 00:19:06;;;;;;;2.28;1.75;;;6.70;99.90;;;;;;4991203;28;20030;-79
2021/10/13 00:21:32;;;;;;;3.42;1.95;;;6.70;99.90;;;;;;4993724;28;20034;-78
2021/10/13 00:23:58;;;;;;;7.10;2.30;;;6.70;99.90;;;;;;4999280;28;20038;-79
2021/10/13 00:26:23;;;;;;;3.08;2.20;;;6.70;99.90;;;;;;4973289;28;20035;-79
2021/10/13 00:28:49;;;;;;;3.72;2.22;;;6.70;99.90;;;;;;5003253;28;20344;-79
2021/10/13 00:31:15;;;;;;;4.47;2.10;;;6.70;99.90;;;;;;4991942;28;20053;-79
2021/10/13 00:33:41;;;;;;;6.70;2.65;;;6.60;99.90;;;;;;4994386;28;20027;-79
2021/10/13 00:36:06;;;;;;;5.93;2.78;;;6.60;99.90;;;;;;4982579;28;20042;-79
2021/10/13 00:38:32;;;;;;;5.80;3.42;;;6.60;99.90;;;;;;4965952;28;20045;-79
2021/10/13 00:40:58;;;;;;;5.97;3.55;;;6.60;99.90;;;;;;4989587;28;20038;-79
2021/10/13 00:43:23;;;;;;;5.70;3.63;;;6.70;99.90;;;;;;5018427;28;20029;-78
2021/10/13 00:45:52;;;;;;;8.82;4.38;;;6.70;99.90;;;;;;5003198;28;20031;-80
2021/10/13 00:48:18;;;;;;;10.07;4.70;;;6.70;99.90;;;;;;4991947;28;20050;-80
2021/10/13 00:50:43;;;;;;;6.90;4.57;;;6.70;99.90;;;;;;4977740;28;20141;-80
2021/10/13 00:53:10;;;;;;;8.98;5.00;;;6.70;99.90;;;;;;4995111;28;20026;-79
2021/10/13 00:55:35;;;;;;;10.13;4.95;;;6.70;99.90;;;;;;4990536;28;20062;-80
2021/10/13 00:58:01;;;;;;;12.70;5.70;;;6.70;99.90;;;;;;4966073;28;20086;-79
2021/10/13 01:00:27;;;;;;;9.10;4.93;;;6.70;99.90;;;;;;4996775;28;20041;-80
2021/10/13 01:03:07;;;;;;;11.65;5.97;;;6.70;99.90;;;;;;5011523;28;20023;-79
2021/10/13 01:05:51;;;;;;;9.70;5.70;;;6.70;99.90;;;;;;4992345;28;20085;-80
2021/10/13 01:08:41;;;;;;;9.05;5.53;;;6.70;99.90;;;;;;4973521;28;20030;-80
2021/10/13 01:11:37;;;;;;;14.90;6.30;;;6.70;99.90;;;;;;4981257;28;20076;-79
2021/10/13 01:14:16;;;;;;;12.05;6.25;;;6.70;99.90;;;;;;5017710;28;20018;-79
2021/10/13 01:16:43;;;;;;;10.15;6.68;;;6.70;99.90;;;;;;5013315;28;20041;-81
2021/10/13 01:19:43;;;;;;;11.73;6.57;;;6.70;99.90;;;;;;5002228;28;20010;-80
2021/10/13 01:22:46;;;;;;;12.63;6.88;;;6.70;99.90;;;;;;4980540;28;20431;-78
2021/10/13 01:25:49;;;;;;;14.90;7.95;;;6.70;99.90;;;;;;4983377;28;20033;-80
2021/10/13 01:28:29;;;;;;;11.70;7.05;;;6.70;99.90;;;;;;4966969;28;20071;-79
2021/10/13 01:31:14;;;;;;;13.90;8.05;;;6.70;99.90;;;;;;4983465;28;20378;-79
2021/10/13 01:33:52;;;;;;;14.57;7.10;;;6.70;99.90;;;;;;4964465;28;20019;-80
2021/10/13 01:36:23;;;;;;;19.23;8.50;;;6.70;99.90;;;;;;4996613;28;20026;-79
2021/10/13 01:38:52;;;;;;;16.73;8.00;;;6.70;99.90;;;;;;5001100;28;20030;-80
2021/10/13 01:41:20;;;;;;;15.18;7.97;;;6.70;99.90;;;;;;5026884;23;20037;-82
2021/10/13 01:43:49;;;;;;;15.88;8.07;;;6.70;99.90;;;;;;4998366;28;20030;-81
2021/10/13 01:46:21;;;;;;;18.88;9.98;;;6.80;99.90;;;;;;4997881;28;20051;-81
2021/10/13 01:48:48;;;;;;;13.68;8.38;;;6.80;99.90;;;;;;5031006;28;20049;-82
2021/10/13 01:51:15;;;;;;;14.70;7.45;;;6.70;99.90;;;;;;5016204;28;20449;-81
2021/10/13 01:53:43;;;;;;;14.82;7.90;;;6.70;99.90;;;;;;5017314;28;20102;-81
2021/10/13 01:56:10;;;;;;;13.13;7.07;;;6.70;99.90;;;;;;5010358;28;20022;-81
2021/10/13 01:58:38;;;;;;;14.90;8.50;;;6.70;99.90;;;;;;5037843;28;20024;-81
2021/10/13 02:01:06;;;;;;;18.58;9.80;;;6.70;99.90;;;;;;5041059;28;20071;-81
2021/10/13 02:03:33;;;;;;;19.08;10.32;;;6.70;99.90;;;;;;5019090;28;20034;-81
2021/10/13 02:06:05;;;;;;;16.35;9.20;;;6.80;99.90;;;;;;5025513;28;20022;-81
2021/10/13 02:08:33;;;;;;;17.33;9.48;;;6.80;99.90;;;;;;5021267;28;20026;-81
2021/10/13 02:11:02;;;;;;;20.63;9.70;;;6.80;99.90;;;;;;5004877;28;20120;-79
2021/10/13 02:13:32;;;;;;;18.70;8.75;;;6.80;99.90;;;;;;5029818;28;20029;-80
2021/10/13 02:16:00;;;;;;;15.90;9.45;;;6.80;99.90;;;;;;5020981;28;20022;-81
2021/10/13 02:18:28;;;;;;;14.88;7.97;;;6.80;99.90;;;;;;5023466;28;20517;-82
2021/10/13 02:20:56;;;;;;;14.52;8.52;;;6.80;99.90;;;;;;5031824;28;20029;-82
2021/10/13 02:23:28;;;;;;;19.13;9.98;;;6.80;99.90;;;;;;5021879;28;20067;-82
2021/10/13 02:25:54;;;;;;;;;;;6.80;99.90;;;;;;5024229;28;20033;-82
2021/10/13 02:28:31;;;;;;;13.23;7.68;;;6.80;99.90;;;;;;5038728;28;20258;-82
2021/10/13 02:30:57;;;;;;;16.88;8.30;;;6.80;99.90;;;;;;5009334;28;20052;-81
2021/10/13 02:33:24;;;;;;;14.45;7.40;;;6.80;99.90;;;;;;5019889;28;20062;-81
2021/10/13 02:35:51;;;;;;;15.90;8.38;;;6.80;99.90;;;;;;5022315;28;20030;-81
2021/10/13 02:38:17;;;;;;;14.18;8.00;;;6.70;99.90;;;;;;5023441;28;20018;-81
2021/10/13 02:40:43;;;;;;;14.80;8.00;;;6.70;99.90;;;;;;5020576;28;20032;-81
2021/10/13 02:43:10;;;;;;;14.10;8.15;;;6.70;99.90;;;;;;5022806;28;20013;-83
2021/10/13 02:45:39;;;;;;;14.13;7.47;;;6.70;99.90;;;;;;5041142;28;20022;-82
2021/10/13 02:48:12;;;;;;;13.48;7.78;;;6.70;99.90;;;;;;5040517;28;20022;-82
2021/10/13 02:50:59;;;;;;;9.05;5.85;;;6.70;99.90;;;;;;5020292;28;20158;-82
2021/10/13 02:53:34;;;;;;;6.47;4.32;;;6.70;99.90;;;;;;5024378;28;20034;-82
2021/10/13 02:56:26;;;;;;;6.13;4.10;;;6.60;99.90;;;;;;5021184;28;20124;-83
2021/10/13 02:59:32;;;;;;;8.75;4.97;;;6.50;99.90;;;;;;5012045;28;20053;-81
2021/10/13 03:02:02;;;;;;;6.38;4.43;;;6.50;99.90;;;;;;5009244;28;20066;-81
2021/10/13 03:04:35;;;;;;;8.10;5.32;;;6.40;99.90;;;;;;5019480;28;20022;-81
2021/10/13 03:07:11;;;;;;;10.88;6.40;;;6.40;99.90;;;;;;5026110;28;20036;-84
2021/10/13 03:09:39;;;;;;;12.57;7.18;;;6.40;99.90;;;;;;5033405;28;20026;-82
2021/10/13 03:12:10;;;;;;;10.38;6.60;;;6.40;99.90;;;;;;5029386;28;20030;-82
2021/10/13 03:14:38;;;;;;;9.68;6.05;;;6.40;99.90;;;;;;5024262;28;20022;-81
2021/10/13 03:17:05;;;;;;;7.85;5.65;;;6.40;99.90;;;;;;5006586;28;20034;-81
2021/10/13 03:19:35;;;;;;;6.95;5.15;;;6.40;99.90;;;;;;5003665;28;20025;-82
2021/10/13 03:22:02;;;;;;;17.42;9.63;;;6.40;99.90;;;;;;5024850;28;20048;-82
2021/10/13 03:24:28;;;;;;;13.88;9.60;;;6.40;99.90;;;;;;5026841;28;20026;-82
2021/10/13 03:26:54;;;;;;;13.10;7.47;;;6.40;99.90;;;;;;5007831;28;20072;-82
2021/10/13 03:29:20;;;;;;;11.43;7.20;;;6.40;99.90;;;;;;5001382;28;20093;-82
2021/10/13 03:31:46;;;;;;;14.75;8.77;;;6.40;99.90;;;;;;5018728;28;20022;-81
2021/10/13 03:34:16;;;;;;;14.32;8.48;;;6.40;99.90;;;;;;5018244;28;20093;-82
2021/10/13 03:36:43;;;;;;;12.38;7.55;;;6.50;99.90;;;;;;5027247;28;20029;-81
2021/10/13 03:39:10;;;;;;;13.70;8.38;;;6.50;99.90;;;;;;5019284;28;20022;-83
2021/10/13 03:41:36;;;;;;;13.35;7.95;;;6.50;99.90;;;;;;5037899;28;20124;-82
2021/10/13 03:44:03;;;;;;;10.43;7.22;;;6.50;99.90;;;;;;5032469;28;20049;-82
2021/10/13 03:46:28;;;;;;;11.15;7.00;;;6.50;99.90;;;;;;5041524;28;20010;-82
2021/10/13 03:48:54;;;;;;;13.20;7.10;;;6.60;99.90;;;;;;5032097;28;20048;-82
2021/10/13 03:51:20;;;;;;;13.40;8.27;;;6.50;99.90;;;;;;5053041;28;20033;-82
2021/10/13 03:53:47;;;;;;;11.15;6.45;;;6.60;99.90;;;;;;5042697;28;20014;-83
2021/10/13 03:56:13;;;;;;;9.13;6.25;;;6.60;99.90;;;;;;5030443;28;20048;-82
2021/10/13 03:58:39;;;;;;;6.32;5.25;;;6.60;99.90;;;;;;5022262;28;20022;-81
2021/10/13 04:01:05;;;;;;;12.65;7.60;;;6.60;99.90;;;;;;5041167;28;20026;-82
2021/10/13 04:03:31;;;;;;;14.27;8.32;;;6.60;99.90;;;;;;5025073;28;20036;-82
2021/10/13 04:05:57;;;;;;;17.23;10.32;;;6.60;99.90;;;;;;5038233;28;20037;-80
2021/10/13 04:08:22;;;;;;;16.13;8.80;;;6.60;99.90;;;;;;5032382;28;20038;-81
2021/10/13 04:10:48;;;;;;;14.57;8.77;;;6.60;99.90;;;;;;5026146;28;20029;-80
2021/10/13 04:13:14;;;;;;;14.90;7.70;;;6.60;99.90;;;;;;5032068;28;20114;-82
2021/10/13 04:15:40;;;;;;;17.98;9.45;;;6.70;99.90;;;;;;5015786;28;20028;-80
2021/10/13 04:18:06;;;;;;;20.25;11.10;;;6.70;99.90;;;;;;5020808;28;20340;-80
2021/10/13 04:20:32;;;;;;;19.88;10.55;;;6.70;99.90;;;;;;5029087;28;20033;-80
2021/10/13 04:22:58;;;;;;;18.38;9.85;;;6.70;99.90;;;;;;5018006;28;20056;-79
2021/10/13 04:25:24;;;;;;;19.70;11.45;;;6.70;99.90;;;;;;5004198;28;20014;-80
2021/10/13 04:27:50;;;;;;;16.70;9.15;;;6.70;99.90;;;;;;5022802;28;20117;-81
2021/10/13 04:30:16;;;;;;;19.67;10.88;;;6.70;99.90;;;;;;5021669;28;20394;-80
2021/10/13 04:32:43;;;;;;;18.15;11.27;;;6.70;99.90;;;;;;5042867;28;20025;-81
2021/10/13 04:35:09;;;;;;;19.65;11.75;;;6.70;99.90;;;;;;5044307;28;20087;-80
2021/10/13 04:37:36;;;;;;;20.13;11.60;;;6.70;99.90;;;;;;5042358;28;20026;-81
2021/10/13 04:40:03;;;;;;;17.45;11.60;;;6.70;99.90;;;;;;5025863;28;20025;-79
2021/10/13 04:42:29;;;;;;;18.58;10.77;;;6.70;99.90;;;;;;5033399;28;20037;-81
2021/10/13 04:44:55;;;;;;;17.98;10.98;;;6.60;99.90;;;;;;5020064;28;20102;-80
2021/10/13 04:47:20;;;;;;;17.40;11.30;;;6.60;99.90;;;;;;5022340;28;20199;-80
2021/10/13 04:49:46;;;;;;;20.10;11.32;;;6.60;99.90;;;;;;5022416;28;20026;-80
2021/10/13 04:52:12;;;;;;;19.92;10.57;;;6.60;99.90;;;;;;5022238;28;20029;-82
2021/10/13 04:54:37;;;;;;;21.55;12.02;;;6.60;99.90;;;;;;5020296;28;20025;-81
2021/10/13 04:57:03;;;;;;;14.52;9.70;;;6.60;99.90;;;;;;5020927;28;20029;-83
2021/10/13 04:59:29;;;;;;;19.15;11.15;;;6.60;99.90;;;;;;5021926;28;20072;-80
2021/10/13 05:01:55;;;;;;;18.25;12.43;;;6.60;99.90;;;;;;5021488;28;20511;-80
2021/10/13 05:04:20;;;;;;;15.52;10.27;;;6.60;99.90;;;;;;5021949;28;20049;-81
2021/10/13 05:06:46;;;;;;;16.23;10.07;;;6.50;99.90;;;;;;5018504;28;20018;-79
2021/10/13 05:09:12;;;;;;;16.50;10.25;;;6.50;99.90;;;;;;5023182;28;20371;-82
2021/10/13 05:11:39;;;;;;;17.73;10.65;;;6.50;99.90;;;;;;5034733;28;20036;-80
2021/10/13 05:14:04;;;;;;;16.80;10.45;;;6.40;99.90;;;;;;5036291;28;20029;-80
2021/10/13 05:16:30;;;;;;;17.38;10.07;;;6.40;99.90;;;;;;5047692;28;20017;-79
2021/10/13 05:18:56;;;;;;;16.33;9.73;;;6.30;99.90;;;;;;5025199;28;20018;-80
2021/10/13 05:21:23;;;;;;;14.13;9.00;;;6.20;99.90;;;;;;5030768;28;20049;-80
2021/10/13 05:23:48;;;;;;;12.57;8.15;;;6.10;99.90;;;;;;5029622;28;20092;-79
2021/10/13 05:26:14;;;;;;;12.02;7.82;;;6.00;99.90;;;;;;5038022;28;20025;-80
2021/10/13 05:28:40;;;;;;;10.77;6.85;;;5.90;99.90;;;;;;5027402;28;20081;-80
2021/10/13 05:31:06;;;;;;;10.32;6.45;;;5.90;99.90;;;;;;5027476;28;20030;-79
2021/10/13 05:33:31;;;;;;;11.65;7.70;;;5.90;99.90;;;;;;5026990;28;20033;-80
2021/10/13 05:35:57;;;;;;;15.30;8.63;;;5.80;99.90;;;;;;5027085;28;20022;-80
2021/10/13 05:38:23;;;;;;;17.75;9.40;;;5.80;99.90;;;;;;5018393;28;20101;-80
2021/10/13 05:40:49;;;;;;;18.55;10.75;;;5.80;99.90;;;;;;5045419;28;20033;-79
2021/10/13 05:43:15;;;;;;;16.90;10.00;;;5.90;99.90;;;;;;5043174;28;20030;-80
2021/10/13 05:45:41;;;;;;;12.68;7.43;;;5.90;99.90;;;;;;5027207;28;20026;-80
2021/10/13 05:48:06;;;;;;;14.93;8.27;;;5.90;99.90;;;;;;5027593;28;20046;-79
2021/10/13 05:50:32;;;;;;;15.15;8.20;;;6.00;99.90;;;;;;5028175;28;20064;-80
2021/10/13 05:52:58;;;;;;;13.18;7.55;;;6.00;99.90;;;;;;5046597;28;20340;-80
2021/10/13 05:55:24;;;;;;;17.38;10.25;;;6.10;99.90;;;;;;5042977;28;20026;-80
2021/10/13 05:57:50;;;;;;;24.77;12.95;;;6.20;99.90;;;;;;5029183;28;20034;-80
2021/10/13 06:00:16;;;;;;;21.08;11.27;;;6.20;99.90;;;;;;5029457;28;20018;-81
2021/10/13 06:02:42;;;;;;;24.88;13.38;;;6.30;99.90;;;;;;5012982;28;20120;-80
2021/10/13 06:05:07;;;;;;;25.20;14.48;;;6.40;99.90;;;;;;5013227;28;20079;-79
2021/10/13 06:07:33;;;;;;;23.58;13.15;;;6.50;99.90;;;;;;5035001;28;20021;-80
2021/10/13 06:09:59;;;;;;;19.60;11.85;;;6.50;99.90;;;;;;5048497;28;20037;-80
2021/10/13 06:12:25;;;;;;;26.30;13.80;;;6.60;99.90;;;;;;5041283;28;20086;-80
2021/10/13 06:14:51;;;;;;;20.98;11.82;;;6.60;99.90;;;;;;5026968;28;20022;-79
2021/10/13 06:17:17;;;;;;;22.27;12.57;;;6.60;99.90;;;;;;5031190;28;20050;-78
2021/10/13 06:19:43;;;;;;;25.98;12.95;;;6.70;99.90;;;;;;5035137;28;20040;-80
2021/10/13 06:22:09;;;;;;;22.05;12.05;;;6.80;99.90;;;;;;5032054;28;20325;-79
2021/10/13 06:24:34;;;;;;;31.23;14.20;;;6.90;99.90;;;;;;5033447;28;20041;-80
2021/10/13 06:27:00;;;;;;;24.05;12.90;;;6.90;99.90;;;;;;5034857;28;20010;-80
2021/10/13 06:29:26;;;;;;;27.25;14.60;;;7.00;99.90;;;;;;5014167;28;20039;-80
2021/10/13 06:31:51;;;;;;;35.50;18.52;;;7.10;99.90;;;;;;5015330;28;20034;-81
2021/10/13 06:34:17;;;;;;;31.95;17.77;;;7.20;99.90;;;;;;5015341;28;20039;-78
2021/10/13 06:36:43;;;;;;;26.77;16.17;;;7.20;99.90;;;;;;5013272;28;20029;-78
2021/10/13 06:39:09;;;;;;;23.55;14.85;;;7.30;99.90;;;;;;5030968;28;20029;-78
2021/10/13 06:41:35;;;;;;;25.00;15.13;;;7.20;99.90;;;;;;5034384;28;20017;-78
2021/10/13 06:44:00;;;;;;;32.33;19.85;;;7.30;99.90;;;;;;5040305;28;20071;-79
2021/10/13 06:46:27;;;;;;;27.30;16.90;;;7.40;99.90;;;;;;5033970;28;20033;-80
2021/10/13 06:48:52;;;;;;;30.27;17.05;;;7.50;99.90;;;;;;5032951;28;20025;-79
2021/10/13 06:51:18;;;;;;;26.25;16.13;;;7.70;99.90;;;;;;5027859;28;20025;-79
2021/10/13 06:53:46;;;;;;;20.75;14.02;;;7.90;99.90;;;;;;5033929;28;20041;-80
2021/10/13 06:56:13;;;;;;;20.70;14.38;;;8.00;99.90;;;;;;5033893;28;20094;-80
2021/10/13 06:58:39;;;;;;;20.25;12.93;;;8.00;99.90;;;;;;5034199;28;20030;-80
2021/10/13 07:01:04;;;;;;;20.70;15.07;;;8.00;99.90;;;;;;5013582;28;20041;-79
2021/10/13 07:03:30;;;;;;;15.40;12.68;;;8.00;99.90;;;;;;5016633;28;20013;-79
2021/10/13 07:05:56;;;;;;;17.45;12.10;;;7.90;99.90;;;;;;5014979;28;20034;-80
2021/10/13 07:08:21;;;;;;;17.10;12.32;;;7.90;99.90;;;;;;5033354;28;20097;-79
2021/10/13 07:10:47;;;;;;;16.88;12.35;;;7.90;99.90;;;;;;5034423;28;20034;-79
2021/10/13 07:13:13;;;;;;;16.33;11.75;;;7.90;99.90;;;;;;5048974;28;20052;-79
2021/10/13 07:15:39;;;;;;;14.27;11.00;;;7.80;99.90;;;;;;5057456;28;20013;-79
2021/10/13 07:18:05;;;;;;;18.27;13.45;;;7.80;99.90;;;;;;5051145;28;20073;-79
2021/10/13 07:20:31;;;;;;;15.63;12.18;;;7.80;99.90;;;;;;5031718;28;20026;-79
2021/10/13 07:22:57;;;;;;;16.10;11.48;;;7.80;99.90;;;;;;5012135;28;20094;-79
2021/10/13 07:25:25;;;;;;;18.00;10.85;;;7.80;99.90;;;;;;5031368;28;20021;-79
2021/10/13 07:27:52;;;;;;;18.75;12.07;;;7.90;99.90;;;;;;5010643;28;20041;-80
2021/10/13 07:30:22;;;;;;;12.77;9.57;;;7.90;99.90;;;;;;5030367;28;20080;-79
2021/10/13 07:32:48;;;;;;;14.18;10.57;;;7.90;99.90;;;;;;5030247;28;20017;-79
2021/10/13 07:35:14;;;;;;;11.35;9.25;;;7.90;99.90;;;;;;5014731;28;20081;-78
2021/10/13 07:37:40;;;;;;;14.95;11.45;;;8.10;99.90;;;;;;5012084;28;20026;-80
2021/10/13 07:40:06;;;;;;;12.55;9.23;;;8.30;99.90;;;;;;5031003;28;20096;-81
2021/10/13 07:42:33;;;;;;;15.82;9.05;;;8.30;99.90;;;;;;5030806;23;20473;-77
2021/10/13 07:44:59;;;;;;;10.70;8.55;;;8.40;99.90;;;;;;4981802;28;20537;-77
2021/10/13 07:47:24;;;;;;;14.93;9.20;;;8.30;99.90;;;;;;4997284;28;20034;-76
2021/10/13 07:49:50;;;;;;;12.93;9.18;;;8.20;99.90;;;;;;5004407;28;20038;-76
2021/10/13 07:52:19;;;;;;;10.45;8.63;;;8.10;99.90;;;;;;5019068;28;20032;-78
2021/10/13 07:54:45;;;;;;;19.42;10.85;;;8.00;99.90;;;;;;5016399;28;20056;-77
2021/10/13 07:57:11;;;;;;;12.73;10.20;;;8.00;99.90;;;;;;5019202;28;20026;-77
2021/10/13 07:59:37;;;;;;;13.38;10.48;;;8.10;99.90;;;;;;4996831;28;20026;-79
2021/10/13 08:02:03;;;;;;;14.20;10.50;;;8.20;99.90;;;;;;5020574;28;20101;-77
2021/10/13 08:04:30;;;;;;;12.00;9.70;;;8.30;99.90;;;;;;5004884;28;20033;-77
2021/10/13 08:06:56;;;;;;;12.90;8.25;;;8.50;99.90;;;;;;5020806;28;20022;-77
2021/10/13 08:09:22;;;;;;;8.27;6.82;;;8.80;99.90;;;;;;5016598;28;20076;-77
2021/10/13 08:11:48;;;;;;;7.72;6.10;;;8.90;99.90;;;;;;4988202;28;20037;-78
2021/10/13 08:14:14;;;;;;;8.40;6.25;;;8.80;99.90;;;;;;4997691;28;20044;-76
2021/10/13 08:16:40;;;;;;;9.75;5.78;;;8.60;99.90;;;;;;4997692;28;20026;-76
2021/10/13 08:19:06;;;;;;;8.95;5.78;;;8.40;99.90;;;;;;5016968;28;20044;-77
2021/10/13 08:21:32;;;;;;;7.60;6.38;;;8.30;99.90;;;;;;4998122;28;20026;-78
2021/10/13 08:23:58;;;;;;;8.52;6.10;;;8.20;99.90;;;;;;5018356;28;20022;-76
2021/10/13 08:26:24;;;;;;;10.23;6.40;;;8.10;99.90;;;;;;5016190;28;20109;-77
2021/10/13 08:28:50;;;;;;;7.90;6.00;;;8.20;99.90;;;;;;5016024;28;20507;-77
2021/10/13 08:31:16;;;;;;;6.90;5.85;;;8.30;99.90;;;;;;5006088;28;20112;-77
2021/10/13 08:33:42;;;;;;;10.48;7.18;;;8.50;99.90;;;;;;4976403;28;20027;-77
2021/10/13 08:36:08;;;;;;;10.02;6.80;;;8.90;99.90;;;;;;4994997;28;20101;-77
2021/10/13 08:38:34;;;;;;;7.00;5.63;;;9.50;99.90;;;;;;4978731;28;20036;-78
2021/10/13 08:41:00;;;;;;;6.30;4.65;;;10.00;99.90;;;;;;4996569;28;20030;-77
2021/10/13 08:43:26;;;;;;;9.68;5.13;;;10.10;99.90;;;;;;5010343;28;20041;-77
2021/10/13 08:45:51;;;;;;;8.70;5.65;;;9.80;99.90;;;;;;4997828;28;20033;-77
2021/10/13 08:48:17;;;;;;;7.88;5.40;;;9.50;99.90;;;;;;4996297;28;20038;-77
2021/10/13 08:50:46;;;;;;;6.35;5.20;;;9.20;99.90;;;;;;4996564;28;20391;-77
2021/10/13 08:53:14;;;;;;;12.57;6.72;;;9.00;99.90;;;;;;5013593;28;20014;-77
2021/10/13 08:55:41;;;;;;;9.52;5.43;;;8.90;99.90;;;;;;5016420;28;20026;-77
2021/10/13 08:58:10;;;;;;;7.95;5.45;;;8.70;99.90;;;;;;5014607;28;20442;-77
2021/10/13 09:00:35;;;;;;;7.68;5.97;;;8.50;99.90;;;;;;5013254;28;20025;-77
2021/10/13 09:03:01;;;;;;;6.22;5.43;;;8.40;99.90;;;;;;5001458;28;20110;-76
2021/10/13 09:05:27;;;;;;;6.82;5.32;;;8.30;99.90;;;;;;4994493;28;20026;-77
2021/10/13 09:07:56;;;;;;;10.15;5.50;;;8.20;99.90;;;;;;4994725;28;20415;-77
2021/10/13 09:10:32;;;;;;;6.93;5.13;;;8.10;99.90;;;;;;4994499;28;20026;-76
2021/10/13 09:13:01;;;;;;;9.07;5.65;;;7.90;99.90;;;;;;5011562;28;20162;-77
2021/10/13 09:15:28;;;;;;;10.77;6.25;;;7.90;99.90;;;;;;5014103;28;20060;-77
2021/10/13 09:18:07;;;;;;;12.90;6.10;;;7.80;99.90;;;;;;4997557;28;20022;-77
2021/10/13 09:20:38;;;;;;;7.50;6.35;;;7.90;99.90;;;;;;4997011;28;20030;-77
2021/10/13 09:23:13;;;;;;;6.63;5.10;;;8.10;99.90;;;;;;5006071;28;20502;-78
2021/10/13 09:25:39;;;;;;;8.13;4.40;;;8.50;99.90;;;;;;4997159;28;20034;-78
2021/10/13 09:28:05;;;;;;;4.80;4.00;;;9.50;99.90;;;;;;4980721;28;20030;-77
2021/10/13 09:30:39;;;;;;;4.65;3.97;;;10.30;99.90;;;;;;4995216;28;20471;-76
2021/10/13 09:33:16;;;;;;;4.72;4.22;;;10.60;99.90;;;;;;4998004;28;20014;-77
2021/10/13 09:35:50;;;;;;;5.45;3.40;;;10.60;99.90;;;;;;4997032;28;20126;-78
2021/10/13 09:38:22;;;;;;;4.97;3.13;;;10.40;99.90;;;;;;4996284;28;20073;-78
2021/10/13 09:40:49;;;;;;;5.22;3.45;;;10.20;99.90;;;;;;4996232;28;20048;-77
2021/10/13 09:43:34;;;;;;;4.35;3.60;;;10.00;99.90;;;;;;5002694;28;20038;-76
2021/10/13 09:46:07;;;;;;;4.95;3.15;;;9.70;99.10;;;;;;4979725;28;20093;-78
2021/10/13 09:48:35;;;;;;;4.70;3.90;;;9.40;98.80;;;;;;4994400;28;20072;-76
2021/10/13 09:51:17;;;;;;;7.43;3.85;;;9.30;99.90;;;;;;4996804;28;20026;-76
2021/10/13 09:53:44;;;;;;;8.63;3.92;;;9.30;99.90;;;;;;5011175;28;20022;-77
2021/10/13 09:56:33;;;;;;;7.47;4.20;;;9.80;99.90;;;;;;5011551;28;20029;-77
2021/10/13 09:59:14;;;;;;;4.90;3.97;;;10.20;98.10;;;;;;5032273;28;20048;-77
2021/10/13 10:01:43;;;;;;;6.22;3.10;;;10.30;99.70;;;;;;5024235;28;20032;-77
2021/10/13 10:04:38;;;;;;;5.45;3.63;;;10.70;92.80;;;;;;5003504;28;20538;-77
2021/10/13 10:07:05;;;;;;;5.32;3.30;;;11.20;97.20;;;;;;5006004;28;20045;-77
2021/10/13 10:09:30;;;;;;;5.93;2.95;;;11.40;90.80;;;;;;5009157;28;20057;-78
2021/10/13 10:12:05;;;;;;;8.57;3.25;;;11.40;89.00;;;;;;4988280;28;20029;-77
2021/10/13 10:14:35;;;;;;;5.43;3.35;;;11.30;90.70;;;;;;5013148;28;20022;-77
2021/10/13 10:17:03;;;;;;;5.18;2.42;;;11.50;91.00;;;;;;5017043;28;20018;-77
2021/10/13 10:19:40;;;;;;;5.45;2.70;;;11.30;82.70;;;;;;5000774;28;20049;-78
2021/10/13 10:22:26;;;;;;;5.15;2.72;;;10.90;85.40;;;;;;5000403;28;20083;-75
2021/10/13 10:24:54;;;;;;;3.97;2.90;;;10.60;85.30;;;;;;5028906;28;20088;-77
2021/10/13 10:27:24;;;;;;;5.97;2.95;;;10.40;84.60;;;;;;5021853;28;20040;-77
2021/10/13 10:30:18;;;;;;;4.10;3.08;;;10.40;91.50;;;;;;5004130;28;20034;-77
2021/10/13 10:32:53;;;;;;;3.65;3.13;;;10.50;87.90;;;;;;5004838;28;20045;-77
2021/10/13 10:35:18;;;;;;;5.85;3.15;;;11.20;92.60;;;;;;5001368;28;20490;-77
2021/10/13 10:37:49;;;;;;;4.28;2.88;;;12.00;89.00;;;;;;5001478;28;20053;-77
2021/10/13 10:40:27;;;;;;;3.33;2.50;;;12.40;81.00;;;;;;4999495;28;20383;-76
2021/10/13 10:42:58;;;;;;;5.60;2.55;;;12.40;76.00;;;;;;5004300;28;20049;-77
2021/10/13 10:45:27;;;;;;;4.43;2.63;;;12.20;74.20;;;;;;5015558;28;20034;-77
2021/10/13 10:47:56;;;;;;;5.80;2.50;;;12.00;77.10;;;;;;5018580;28;20101;-77
2021/10/13 10:50:39;;;;;;;4.82;2.40;;;12.10;77.20;;;;;;5020151;28;20030;-76
2021/10/13 10:53:20;;;;;;;3.38;2.47;;;11.90;72.60;;;;;;5016056;28;20018;-76
2021/10/13 10:55:50;;;;;;;3.22;2.97;;;11.70;74.60;;;;;;5017348;28;20057;-77
2021/10/13 10:58:23;;;;;;;5.75;3.50;;;11.50;74.80;;;;;;4998813;28;20083;-76
2021/10/13 11:01:12;;;;;;;5.05;3.13;;;11.30;76.30;;;;;;5014484;28;20171;-76
2021/10/13 11:03:40;;;;;;;4.15;3.00;;;11.10;78.90;;;;;;5000712;28;20038;-77
2021/10/13 11:06:21;;;;;;;5.80;2.72;;;11.00;80.00;;;;;;5001443;28;20037;-76
2021/10/13 11:09:11;;;;;;;6.93;3.00;;;10.90;80.00;;;;;;5021917;28;20052;-77
2021/10/13 11:11:43;;;;;;;7.57;2.97;;;10.80;79.80;;;;;;5000111;28;20487;-77
2021/10/13 11:14:21;;;;;;;3.88;3.40;;;10.90;81.40;;;;;;5003622;28;20037;-77
2021/10/13 11:16:58;;;;;;;4.50;3.45;;;11.20;82.10;;;;;;5015612;28;20060;-76
2021/10/13 11:19:32;;;;;;;8.20;3.75;;;11.60;79.30;;;;;;4997660;28;20026;-76
2021/10/13 11:22:07;;;;;;;5.28;2.47;;;12.10;77.60;;;;;;5001983;28;20030;-76
2021/10/13 11:24:34;;;;;;;5.22;2.25;;;12.50;75.90;;;;;;4977222;28;20410;-77
2021/10/13 11:27:01;;;;;;;4.50;2.40;;;12.80;71.20;;;;;;5015979;28;20029;-78
2021/10/13 11:29:29;;;;;;;3.63;2.00;;;12.80;70.10;;;;;;5015686;28;20373;-76
2021/10/13 11:32:15;;;;;;;4.20;2.45;;;12.70;72.40;;;;;;5013605;28;20034;-76
2021/10/13 11:34:59;;;;;;;5.13;1.85;;;12.80;70.50;;;;;;5017140;28;20104;-78
2021/10/13 11:37:26;;;;;;;3.45;2.10;;;12.90;68.70;;;;;;4995623;28;20261;-78
2021/10/13 11:39:52;;;;;;;2.92;2.33;;;12.90;67.70;;;;;;5007896;28;20026;-78
2021/10/13 11:42:18;;;;;;;5.43;1.73;;;12.60;67.30;;;;;;4996752;28;20038;-77
2021/10/13 11:44:52;;;;;;;2.72;2.30;;;12.10;68.60;;;;;;5005351;28;20029;-76
2021/10/13 11:47:34;;;;;;;5.18;2.60;;;11.60;70.70;;;;;;4994967;28;20026;-77
2021/10/13 11:50:06;;;;;;;3.28;2.08;;;11.40;72.20;;;;;;4995210;28;20399;-77
2021/10/13 11:52:35;;;;;;;3.42;2.53;;;11.40;74.30;;;;;;4995816;28;20023;-77
2021/10/13 11:55:05;;;;;;;2.95;2.17;;;11.60;74.60;;;;;;4996480;28;20491;-78
2021/10/13 11:57:32;;;;;;;3.17;1.90;;;12.00;72.00;;;;;;5006066;28;20026;-77
2021/10/13 12:00:17;;;;;;;3.38;1.45;;;12.00;72.50;;;;;;4994853;28;20553;-77
2021/10/13 12:02:58;;;;;;;2.60;1.92;;;12.20;72.70;;;;;;4997375;28;20463;-77
2021/10/13 12:05:51;;;;;;;7.28;1.58;;;12.80;68.50;;;;;;4998515;28;20022;-77
2021/10/13 12:08:25;;;;;;;1.63;0.88;;;12.80;65.70;;;;;;5005664;28;20026;-77
2021/10/13 12:10:55;;;;;;;1.10;0.70;;;12.30;66.00;;;;;;4988923;28;20401;-77
2021/10/13 12:13:30;;;;;;;2.75;1.23;;;11.70;67.30;;;;;;5015373;28;20050;-76
2021/10/13 12:16:02;;;;;;;1.88;0.90;;;11.40;67.40;;;;;;5003916;28;20026;-77
2021/10/13 12:18:32;;;;;;;3.85;1.33;;;11.40;68.90;;;;;;5022244;28;20040;-76
2021/10/13 12:21:01;;;;;;;1.83;1.33;;;11.50;69.90;;;;;;5014227;28;20113;-77
2021/10/13 12:23:28;;;;;;;3.15;1.20;;;11.70;69.00;;;;;;5005260;28;20027;-77
2021/10/13 12:25:54;;;;;;;3.00;1.23;;;11.70;70.80;;;;;;5023530;28;20042;-77
2021/10/13 12:28:28;;;;;;;6.40;1.45;;;11.70;71.50;;;;;;5009659;28;20121;-77
2021/10/13 12:31:02;;;;;;;4.95;1.20;;;11.90;70.10;;;;;;4996586;28;20050;-78
2021/10/13 12:33:38;;;;;;;1.75;1.25;;;12.10;70.40;;;;;;4999421;28;20018;-77
2021/10/13 12:36:24;;;;;;;2.58;1.27;;;12.00;70.70;;;;;;4999453;28;20109;-77
2021/10/13 12:38:55;;;;;;;5.55;1.40;;;12.20;68.20;;;;;;5004746;28;20045;-77
2021/10/13 12:41:28;;;;;;;4.00;1.00;;;12.20;69.30;;;;;;5009362;28;20030;-78
2021/10/13 12:43:54;;;;;;;1.38;1.08;;;12.00;70.20;;;;;;5003928;28;20029;-78
2021/10/13 12:46:33;;;;;;;2.50;1.17;;;11.90;71.20;;;;;;5019302;28;20102;-77
2021/10/13 12:49:14;;;;;;;3.20;1.58;;;11.90;71.50;;;;;;5015849;28;20030;-77
2021/10/13 12:52:00;;;;;;;1.65;1.05;;;12.10;71.00;;;;;;5014456;28;20036;-76
2021/10/13 12:54:34;;;;;;;1.33;1.20;;;12.40;70.40;;;;;;4997122;28;20036;-77
2021/10/13 12:57:01;;;;;;;4.30;1.48;;;12.90;68.30;;;;;;5015772;28;20049;-78
2021/10/13 12:59:28;;;;;;;4.22;1.42;;;13.00;65.40;;;;;;4999329;28;20032;-79
2021/10/13 13:01:54;;;;;;;2.63;0.80;;;12.90;64.90;;;;;;5015133;28;20032;-78